Kitsap — WYR3421 — position and weather

sailwx.info

Track history (hours):
 
Tides and Currents Weather Stations Pressure Air Temp Water Temp Dewpoint Dewpoint Depression Visibility Wind Speed Wind Dir Waves Ship Positions

Kitsap

Owner: WASHINGTON, STATE OF; Department of Transportation, OLYMPIA, WA. More information available from US FCC via Universal Licensing System and Coast Guard Vessel Documentation Center.

Last reported at 2017-Oct-18 20:01 UTC. Time now 2017-Oct-18 20:03 UTC.
Position N 47°31' W 122°25'.

Length 100 m; draft 5 m.

Type: Passenger vessel. MMSI: 366772980.

Date/timePositionNaut miles runAvg speedWind from/ knotsBaromVisibWave heightAir tempDewpointWater temp
2017-Oct-18 20:01N 47°31' W 122°25'1 1.9
2017-Oct-18 19:31N 47°31' W 122°27'1 1.8
2017-Oct-18 19:00N 47°31' W 122°25'2 3.4
2017-Oct-18 18:30N 47°31' W 122°28'1 2.7
2017-Oct-18 18:01N 47°31' W 122°30'2 3.8
2017-Oct-18 17:30N 47°31' W 122°27'2 4.3
2017-Oct-18 17:00N 47°31' W 122°24'3 5.5
2017-Oct-18 16:31N 47°31' W 122°28'1 1.1
2017-Oct-18 16:00N 47°31' W 122°28'3 6.0
2017-Oct-18 15:31N 47°31' W 122°24'4 7.3
2017-Oct-18 15:01N 47°31' W 122°29'4 3.7
2017-Oct-18 14:00N 47°31' W 122°24'3 5.5
2017-Oct-18 13:30N 47°31' W 122°28'3 5.5
2017-Oct-18 13:00N 47°31' W 122°24'3 5.6
2017-Oct-18 12:31N 47°31' W 122°28'0 0.0
2017-Oct-18 12:01N 47°31' W 122°28'0 0.0
2017-Oct-18 11:31N 47°31' W 122°28'0 0.0
2017-Oct-18 11:00N 47°31' W 122°28'0 0.0
2017-Oct-18 10:31N 47°31' W 122°28'0 0.0
2017-Oct-18 10:01N 47°31' W 122°28'0 0.0
2017-Oct-18 09:31N 47°31' W 122°28'0 0.0
2017-Oct-18 09:01N 47°31' W 122°28'0 0.0
2017-Oct-18 08:31N 47°31' W 122°28'0 0.0
2017-Oct-18 08:01N 47°31' W 122°28'0 0.0
2017-Oct-18 07:31N 47°31' W 122°28'0 0.0
2017-Oct-18 07:01N 47°31' W 122°28'0 0.0
2017-Oct-18 06:31N 47°31' W 122°28'0 0.0
2017-Oct-18 06:00N 47°31' W 122°28'0 0.0
2017-Oct-18 05:30N 47°31' W 122°28'0 0.0
2017-Oct-18 05:01N 47°31' W 122°28'1 2.6
2017-Oct-18 04:31N 47°31' W 122°30'3 6.7
2017-Oct-18 04:01N 47°31' W 122°25'2 4.2
2017-Oct-18 03:30N 47°31' W 122°28'3 5.5
2017-Oct-18 03:00N 47°31' W 122°24'3 5.9
2017-Oct-18 02:31N 47°31' W 122°28'1 1.0
2017-Oct-18 02:00N 47°31' W 122°28'3 5.6
2017-Oct-18 01:30N 47°31' W 122°24'4 8.0
2017-Oct-18 01:00N 47°31' W 122°30'1 2.5
2017-Oct-18 00:30N 47°31' W 122°28'3 5.6
2017-Oct-18 00:00N 47°31' W 122°24'3 5.6
2017-Oct-17 23:30N 47°31' W 122°28'3 5.5
2017-Oct-17 23:00N 47°31' W 122°24'2 3.9
2017-Oct-17 22:30N 47°31' W 122°27'1 1.2
2017-Oct-17 22:00N 47°31' W 122°27'2 4.2
2017-Oct-17 21:31N 47°31' W 122°24'2 4.7
2017-Oct-17 21:00N 47°31' W 122°28'0 0.0
2017-Oct-17 20:30N 47°31' W 122°28'2 4.0
2017-Oct-17 20:01N 47°32' W 122°25'1 2.8
2017-Oct-17 19:30N 47°31' W 122°27'1 2.4
2017-Oct-17 19:00N 47°31' W 122°25'2 3.8
2017-Oct-17 18:30N 47°31' W 122°28'1 2.7
2017-Oct-17 18:00N 47°31' W 122°30'2 3.3
2017-Oct-17 17:30N 47°31' W 122°27'2 4.8
2017-Oct-17 17:00N 47°31' W 122°24'3 5.9
2017-Oct-17 16:31N 47°31' W 122°28'0 0.3
2017-Oct-17 16:01N 47°31' W 122°28'3 5.3
2017-Oct-17 15:31N 47°31' W 122°24'4 7.2
2017-Oct-17 15:01N 47°31' W 122°30'1 2.6
2017-Oct-17 14:30N 47°31' W 122°28'3 5.6
2017-Oct-17 14:00N 47°31' W 122°24'3 5.5
2017-Oct-17 13:30N 47°31' W 122°28'3 5.6
2017-Oct-17 13:00N 47°31' W 122°24'3 5.5
2017-Oct-17 12:30N 47°31' W 122°28'0 0.0
2017-Oct-17 12:01N 47°31' W 122°28'0 0.0
2017-Oct-17 11:31N 47°31' W 122°28'0 0.0
2017-Oct-17 11:01N 47°31' W 122°28'0 0.0
2017-Oct-17 10:30N 47°31' W 122°28'0 0.0
2017-Oct-17 10:00N 47°31' W 122°28'0 0.0
2017-Oct-17 09:31N 47°31' W 122°28'0 0.0
2017-Oct-17 09:01N 47°31' W 122°28'0 0.0
2017-Oct-17 08:31N 47°31' W 122°28'0 0.0
2017-Oct-17 08:00N 47°31' W 122°28'0 0.0
2017-Oct-17 07:31N 47°31' W 122°28'0 0.0
2017-Oct-17 07:01N 47°31' W 122°28'0 0.0
2017-Oct-17 06:31N 47°31' W 122°28'0 0.0
2017-Oct-17 06:00N 47°31' W 122°28'0 0.0
2017-Oct-17 05:30N 47°31' W 122°28'0 0.0
2017-Oct-17 05:00N 47°31' W 122°28'1 2.7
2017-Oct-17 04:30N 47°31' W 122°30'4 7.8
2017-Oct-17 04:00N 47°31' W 122°24'3 5.3
2017-Oct-17 03:30N 47°31' W 122°28'3 5.6
2017-Oct-17 03:01N 47°31' W 122°24'3 5.6
2017-Oct-17 02:31N 47°31' W 122°28'0 0.5
2017-Oct-17 02:00N 47°31' W 122°28'3 5.6
2017-Oct-17 01:30N 47°31' W 122°24'4 8.1
2017-Oct-17 01:01N 47°31' W 122°30'1 2.6
2017-Oct-17 00:30N 47°31' W 122°28'3 5.6
2017-Oct-17 00:00N 47°31' W 122°24'3 5.6
2017-Oct-16 23:30N 47°31' W 122°28'3 5.5
2017-Oct-16 23:01N 47°31' W 122°24'2 3.6
2017-Oct-16 22:31N 47°31' W 122°26'1 2.0
2017-Oct-16 22:01N 47°31' W 122°28'2 4.7
2017-Oct-16 21:31N 47°31' W 122°24'2 4.7
2017-Oct-16 21:00N 47°31' W 122°28'0 0.0
2017-Oct-16 20:30N 47°31' W 122°28'2 3.8
2017-Oct-16 20:01N 47°31' W 122°25'1 2.0
2017-Oct-16 19:30N 47°31' W 122°26'1 1.5
2017-Oct-16 19:01N 47°31' W 122°25'2 3.3
2017-Oct-16 18:31N 47°31' W 122°28'1 2.7
2017-Oct-16 18:00N 47°31' W 122°30'2 3.8
2017-Oct-16 17:30N 47°31' W 122°27'2 4.3
2017-Oct-16 17:01N 47°31' W 122°24'3 5.5
2017-Oct-16 16:31N 47°31' W 122°28'1 1.1
2017-Oct-16 16:01N 47°31' W 122°28'3 6.3
2017-Oct-16 15:30N 47°31' W 122°24'4 7.5
2017-Oct-16 15:00N 47°31' W 122°29'1 2.2
2017-Oct-16 14:31N 47°31' W 122°28'0 0.0
2017-Oct-16 13:30N 47°31' W 122°28'3 5.6
2017-Oct-16 13:01N 47°31' W 122°24'3 5.5
2017-Oct-16 12:30N 47°31' W 122°28'0 0.0
2017-Oct-16 12:00N 47°31' W 122°28'0 0.0
2017-Oct-16 11:30N 47°31' W 122°28'0 0.0
2017-Oct-16 11:00N 47°31' W 122°28'0 0.0
2017-Oct-16 10:30N 47°31' W 122°28'0 0.0
2017-Oct-16 10:00N 47°31' W 122°28'0 0.0
2017-Oct-16 09:30N 47°31' W 122°28'0 0.0
2017-Oct-16 09:00N 47°31' W 122°28'0 0.0
2017-Oct-16 08:30N 47°31' W 122°28'0 0.0
2017-Oct-16 08:00N 47°31' W 122°28'0 0.0
2017-Oct-16 07:30N 47°31' W 122°28'0 0.0
2017-Oct-16 07:00N 47°31' W 122°28'0 0.0
2017-Oct-16 06:30N 47°31' W 122°28'0 0.0
2017-Oct-16 06:00N 47°31' W 122°28'0 0.0
2017-Oct-16 05:30N 47°31' W 122°28'0 0.0
2017-Oct-16 05:00N 47°31' W 122°28'0 0.0
2017-Oct-16 04:30N 47°31' W 122°28'0 0.0
2017-Oct-16 04:00N 47°31' W 122°28'0 0.0
2017-Oct-16 03:30N 47°31' W 122°28'0 0.0
2017-Oct-16 03:00N 47°31' W 122°28'1 2.8
2017-Oct-16 02:31N 47°31' W 122°26'1 1.2
2017-Oct-16 02:00N 47°31' W 122°27'2 4.1
2017-Oct-16 01:30N 47°31' W 122°30'4 8.0
2017-Oct-16 01:01N 47°31' W 122°24'3 5.5
2017-Oct-16 00:31N 47°31' W 122°28'3 5.5
2017-Oct-16 00:00N 47°31' W 122°24'2 4.3
2017-Oct-15 23:30N 47°31' W 122°27'1 2.8
2017-Oct-15 23:00N 47°31' W 122°25'1 2.9
2017-Oct-15 22:31N 47°31' W 122°27'0 0.8
2017-Oct-15 22:01N 47°31' W 122°27'2 4.4
2017-Oct-15 21:30N 47°31' W 122°30'2 3.7
2017-Oct-15 21:00N 47°31' W 122°27'2 3.8
2017-Oct-15 20:30N 47°31' W 122°24'1 2.8
2017-Oct-15 20:01N 47°31' W 122°26'0 0.5
2017-Oct-15 19:31N 47°31' W 122°26'2 3.1
2017-Oct-15 19:01N 47°32' W 122°28'917.2
2017-Oct-15 18:31N 47°41' W 122°28'917.1
2017-Oct-15 18:01N 47°49' W 122°25'917.2
2017-Oct-15 17:30N 47°57' W 122°21'2 3.0
2017-Oct-15 17:00N 47°57' W 122°18'2 4.6
2017-Oct-15 16:30N 47°58' W 122°21'2 4.5
2017-Oct-15 16:00N 47°57' W 122°18'2 4.5
2017-Oct-15 15:30N 47°58' W 122°21'2 4.6
2017-Oct-15 15:01N 47°57' W 122°18'0 0.0
2017-Oct-15 14:01N 47°57' W 122°18'2 4.5
2017-Oct-15 13:30N 47°58' W 122°21'2 4.5
2017-Oct-15 13:00N 47°57' W 122°18'2 4.5
2017-Oct-15 12:30N 47°58' W 122°21'0 0.0
2017-Oct-15 10:12N 47°58' W 122°21'0 0.0
2017-Oct-15 10:00N 47°58' W 122°21'0 0.0
2017-Oct-15 08:24N 47°58' W 122°21'2 6.0
2017-Oct-15 08:01N 47°57' W 122°18'2 4.6
2017-Oct-15 07:30N 47°58' W 122°21'2 4.6
2017-Oct-15 07:01N 47°57' W 122°18'2 4.6
2017-Oct-15 06:30N 47°58' W 122°21'2 4.6
2017-Oct-15 06:00N 47°57' W 122°18'2 4.5
2017-Oct-15 05:29N 47°58' W 122°21'2 4.7
2017-Oct-15 05:00N 47°57' W 122°18'2 4.5
2017-Oct-15 04:30N 47°58' W 122°21'2 4.6
2017-Oct-15 04:00N 47°57' W 122°18'2 4.6
2017-Oct-15 03:30N 47°58' W 122°21'2 4.7
2017-Oct-15 03:00N 47°57' W 122°18'2 4.7
2017-Oct-15 02:30N 47°58' W 122°21'2 4.7
2017-Oct-15 02:00N 47°57' W 122°18'2 4.3
2017-Oct-15 01:28N 47°58' W 122°21'2 5.0
2017-Oct-15 01:01N 47°57' W 122°18'2 4.6
2017-Oct-15 00:30N 47°58' W 122°21'2 4.7
2017-Oct-15 00:01N 47°57' W 122°18'2 4.6
2017-Oct-14 23:30N 47°58' W 122°21'2 4.7
2017-Oct-14 23:00N 47°57' W 122°18'2 4.7
2017-Oct-14 22:30N 47°58' W 122°21'2 4.7
2017-Oct-14 22:00N 47°57' W 122°18'2 4.6
2017-Oct-14 21:31N 47°58' W 122°21'2 4.6
2017-Oct-14 21:00N 47°57' W 122°18'2 4.7
2017-Oct-14 20:30N 47°58' W 122°21'2 4.6
2017-Oct-14 20:00N 47°57' W 122°18'2 4.5
2017-Oct-14 19:30N 47°58' W 122°21'2 4.8
2017-Oct-14 19:01N 47°57' W 122°18'2 4.6
2017-Oct-14 18:30N 47°58' W 122°21'2 4.7
2017-Oct-14 18:01N 47°57' W 122°18'2 4.6
2017-Oct-14 17:30N 47°58' W 122°21'2 4.6
2017-Oct-14 17:00N 47°57' W 122°18'2 4.6
2017-Oct-14 16:30N 47°58' W 122°21'2 4.7
2017-Oct-14 16:00N 47°57' W 122°18'2 4.6
2017-Oct-14 15:30N 47°58' W 122°21'2 4.6
2017-Oct-14 15:00N 47°57' W 122°18'2 4.5
2017-Oct-14 14:30N 47°58' W 122°21'2 4.7
2017-Oct-14 14:00N 47°57' W 122°18'2 4.6
2017-Oct-14 13:30N 47°58' W 122°21'2 4.6
2017-Oct-14 13:00N 47°57' W 122°18'2 4.4
2017-Oct-14 12:30N 47°58' W 122°21'0 0.1
2017-Oct-14 12:01N 47°58' W 122°21'0 0.0
2017-Oct-14 11:30N 47°58' W 122°21'0 0.0
2017-Oct-14 11:00N 47°58' W 122°21'0 0.0
2017-Oct-14 08:58N 47°58' W 122°21'0 0.0
2017-Oct-14 08:30N 47°58' W 122°21'2 4.7
2017-Oct-14 08:00N 47°57' W 122°18'2 4.5
2017-Oct-14 07:30N 47°58' W 122°21'2 4.6
2017-Oct-14 07:01N 47°57' W 122°18'2 4.4
2017-Oct-14 06:30N 47°58' W 122°21'2 4.7
2017-Oct-14 06:00N 47°57' W 122°18'2 4.1
2017-Oct-14 05:26N 47°58' W 122°21'2 5.3
2017-Oct-14 05:00N 47°57' W 122°18'2 4.4
2017-Oct-14 04:30N 47°58' W 122°21'2 4.7
2017-Oct-14 04:00N 47°57' W 122°18'2 4.6
2017-Oct-14 03:30N 47°58' W 122°21'2 4.7
2017-Oct-14 03:00N 47°57' W 122°18'2 4.7
2017-Oct-14 02:31N 47°58' W 122°21'2 4.6
2017-Oct-14 02:00N 47°57' W 122°18'1 1.2
2017-Oct-14 01:15N 47°57' W 122°20'1 3.7
2017-Oct-14 01:00N 47°57' W 122°18'2 3.1
2017-Oct-14 00:22N 47°58' W 122°21'2 5.2
2017-Oct-13 23:59N 47°57' W 122°18'2 4.5
2017-Oct-13 23:28N 47°58' W 122°21'2 4.8
2017-Oct-13 23:00N 47°57' W 122°18'2 4.8
2017-Oct-13 22:30N 47°58' W 122°21'2 4.6
2017-Oct-13 22:00N 47°57' W 122°18'2 4.7
2017-Oct-13 21:31N 47°58' W 122°21'2 4.6
2017-Oct-13 21:00N 47°57' W 122°18'2 4.6
2017-Oct-13 20:30N 47°58' W 122°21'2 4.7
2017-Oct-13 20:00N 47°57' W 122°18'2 4.2
2017-Oct-13 19:27N 47°58' W 122°21'2 5.0
2017-Oct-13 19:00N 47°57' W 122°18'2 4.5
2017-Oct-13 18:30N 47°58' W 122°21'2 4.6
2017-Oct-13 18:00N 47°57' W 122°18'2 4.7
2017-Oct-13 17:30N 47°58' W 122°21'2 4.7
2017-Oct-13 17:00N 47°57' W 122°18'2 4.6
2017-Oct-13 16:30N 47°58' W 122°21'2 4.7
2017-Oct-13 16:00N 47°57' W 122°18'2 4.7
2017-Oct-13 15:30N 47°58' W 122°21'2 4.6
2017-Oct-13 15:01N 47°57' W 122°18'2 4.5
2017-Oct-13 14:30N 47°58' W 122°21'2 4.6
2017-Oct-13 14:00N 47°57' W 122°18'2 4.6
2017-Oct-13 13:30N 47°58' W 122°21'2 4.7
2017-Oct-13 13:00N 47°57' W 122°18'2 4.4
2017-Oct-13 12:29N 47°58' W 122°21'2 4.9
2017-Oct-13 12:00N 47°57' W 122°18'2 0.4
2017-Oct-13 05:38N 47°59' W 122°21'0 0.2
2017-Oct-13 05:26N 47°59' W 122°21'0 0.0
2017-Oct-13 04:25N 47°59' W 122°21'2 5.8
2017-Oct-13 04:01N 47°57' W 122°18'2 4.6
2017-Oct-13 03:30N 47°58' W 122°21'2 4.6
2017-Oct-13 03:00N 47°57' W 122°18'2 4.6
2017-Oct-13 02:30N 47°58' W 122°21'2 4.7
2017-Oct-13 02:00N 47°57' W 122°18'2 4.5
2017-Oct-13 01:30N 47°58' W 122°21'2 4.8
2017-Oct-13 01:00N 47°57' W 122°18'2 4.6
2017-Oct-13 00:30N 47°58' W 122°21'2 4.7
2017-Oct-13 00:00N 47°57' W 122°18'2 4.6
2017-Oct-12 23:30N 47°58' W 122°21'2 4.7
2017-Oct-12 23:00N 47°57' W 122°18'2 4.4
2017-Oct-12 22:29N 47°58' W 122°21'2 4.9
2017-Oct-12 22:00N 47°57' W 122°18'2 4.5
2017-Oct-12 21:30N 47°58' W 122°21'2 4.8
2017-Oct-12 21:00N 47°57' W 122°18'2 4.5
2017-Oct-12 20:30N 47°58' W 122°21'2 4.8
2017-Oct-12 20:01N 47°57' W 122°18'2 4.1
2017-Oct-12 19:27N 47°58' W 122°21'2 5.2
2017-Oct-12 19:00N 47°57' W 122°18'2 4.5
2017-Oct-12 18:30N 47°58' W 122°21'2 4.6
2017-Oct-12 18:00N 47°57' W 122°18'2 4.6
2017-Oct-12 17:30N 47°58' W 122°21'2 4.5
2017-Oct-12 17:00N 47°57' W 122°18'2 4.5
2017-Oct-12 16:30N 47°58' W 122°21'2 4.6
2017-Oct-12 16:01N 47°57' W 122°18'2 4.5
2017-Oct-12 15:30N 47°58' W 122°21'2 4.6
2017-Oct-12 15:00N 47°57' W 122°18'2 4.1
2017-Oct-12 14:27N 47°58' W 122°21'2 5.1
2017-Oct-12 14:00N 47°57' W 122°18'2 4.5
2017-Oct-12 13:30N 47°58' W 122°21'2 4.6
2017-Oct-12 13:00N 47°57' W 122°18'2 4.5
2017-Oct-12 12:30N 47°58' W 122°21'2 4.6
2017-Oct-12 12:00N 47°57' W 122°18'2 0.6
2017-Oct-12 08:21N 47°58' W 122°21'2 6.9
2017-Oct-12 08:00N 47°57' W 122°18'2 4.6
2017-Oct-12 07:30N 47°58' W 122°21'2 4.5
2017-Oct-12 07:01N 47°57' W 122°18'2 4.5
2017-Oct-12 06:30N 47°58' W 122°21'2 4.5
2017-Oct-12 06:00N 47°57' W 122°18'2 4.4
2017-Oct-12 05:29N 47°58' W 122°21'2 4.7
2017-Oct-12 05:00N 47°57' W 122°18'2 4.5
2017-Oct-12 04:31N 47°58' W 122°21'2 4.6
2017-Oct-12 04:00N 47°57' W 122°18'2 4.2
2017-Oct-12 03:27N 47°58' W 122°21'2 5.1
2017-Oct-12 03:00N 47°57' W 122°18'2 4.5
2017-Oct-12 02:29N 47°58' W 122°21'2 4.8
2017-Oct-12 02:00N 47°57' W 122°18'2 4.6
2017-Oct-12 01:30N 47°58' W 122°21'2 4.7
2017-Oct-12 01:00N 47°57' W 122°18'2 4.6
2017-Oct-12 00:30N 47°58' W 122°21'2 4.5
2017-Oct-12 00:00N 47°57' W 122°18'2 4.7
2017-Oct-11 23:30N 47°58' W 122°21'2 4.7
2017-Oct-11 23:00N 47°57' W 122°18'2 4.6
2017-Oct-11 22:30N 47°58' W 122°21'2 4.7
2017-Oct-11 22:00N 47°57' W 122°18'2 4.6
2017-Oct-11 21:30N 47°58' W 122°21'2 4.7
2017-Oct-11 21:01N 47°57' W 122°18'2 4.6
2017-Oct-11 20:30N 47°58' W 122°21'2 4.6
2017-Oct-11 20:00N 47°57' W 122°18'2 4.1
2017-Oct-11 19:26N 47°58' W 122°21'2 5.4
2017-Oct-11 19:00N 47°57' W 122°18'2 4.6
2017-Oct-11 18:30N 47°58' W 122°21'2 4.6
2017-Oct-11 18:00N 47°57' W 122°18'2 4.6
2017-Oct-11 17:30N 47°58' W 122°21'2 4.5
2017-Oct-11 17:00N 47°57' W 122°18'0 0.0
2017-Oct-11 00:00N 47°57' W 122°18'2 4.2
2017-Oct-10 23:27N 47°58' W 122°21'2 5.3
2017-Oct-10 23:00N 47°57' W 122°18'2 4.6
2017-Oct-10 22:30N 47°58' W 122°21'2 4.7
2017-Oct-10 22:00N 47°57' W 122°18'2 4.5
2017-Oct-10 21:30N 47°58' W 122°21'2 4.8
2017-Oct-10 21:00N 47°57' W 122°18'2 3.8
2017-Oct-10 20:23N 47°58' W 122°21'2 6.1
2017-Oct-10 20:01N 47°57' W 122°18'2 3.4
2017-Oct-10 19:19N 47°58' W 122°21'2 7.4
2017-Oct-10 19:01N 47°57' W 122°18'2 3.8
2017-Oct-10 18:24N 47°58' W 122°21'2 6.0
2017-Oct-10 18:00N 47°57' W 122°18'2 4.6
2017-Oct-10 17:31N 47°58' W 122°21'2 4.6
2017-Oct-10 17:00N 47°57' W 122°18'2 4.6
2017-Oct-10 16:30N 47°58' W 122°21'2 4.5
2017-Oct-10 16:00N 47°57' W 122°18'2 4.5
2017-Oct-10 15:30N 47°58' W 122°21'2 4.5
2017-Oct-10 15:00N 47°57' W 122°18'0 0.0
2017-Oct-10 14:00N 47°57' W 122°18'2 4.5
2017-Oct-10 13:30N 47°58' W 122°21'2 4.6
2017-Oct-10 13:00N 47°57' W 122°18'2 4.5
2017-Oct-10 12:30N 47°58' W 122°21'2 4.7
2017-Oct-10 12:00N 47°57' W 122°18'2 4.8
2017-Oct-10 11:30N 47°59' W 122°21'0 0.1
2017-Oct-10 11:00N 47°59' W 122°21'0 0.1
2017-Oct-10 10:30N 47°59' W 122°21'0 0.1
2017-Oct-10 10:00N 47°59' W 122°21'0 0.0
2017-Oct-10 09:24N 47°59' W 122°21'0 0.0
2017-Oct-10 09:00N 47°59' W 122°21'0 0.0
2017-Oct-10 08:30N 47°59' W 122°21'0 0.1
2017-Oct-10 08:00N 47°59' W 122°21'0 0.1
2017-Oct-10 07:30N 47°59' W 122°21'0 0.1
2017-Oct-10 07:00N 47°59' W 122°21'0 0.1
2017-Oct-10 06:27N 47°59' W 122°21'0 0.0
2017-Oct-10 06:00N 47°59' W 122°21'0 0.0
2017-Oct-10 05:23N 47°59' W 122°21'0 0.0
2017-Oct-10 04:56N 47°59' W 122°21'0 0.1
2017-Oct-10 04:30N 47°59' W 122°21'2 4.7
2017-Oct-10 04:00N 47°57' W 122°18'2 4.6
2017-Oct-10 03:30N 47°58' W 122°21'2 4.7
2017-Oct-10 03:01N 47°57' W 122°18'2 4.1
2017-Oct-10 02:26N 47°58' W 122°21'2 5.4
2017-Oct-10 02:00N 47°57' W 122°18'2 3.7
2017-Oct-10 01:23N 47°58' W 122°21'2 6.2
2017-Oct-10 01:00N 47°57' W 122°18'2 3.7
2017-Oct-10 00:23N 47°58' W 122°21'2 6.3
2017-Oct-10 00:00N 47°57' W 122°18'2 3.5
2017-Oct-09 23:21N 47°58' W 122°21'2 6.7
2017-Oct-09 23:00N 47°57' W 122°18'2 3.5
2017-Oct-09 22:20N 47°58' W 122°21'2 6.9
2017-Oct-09 22:00N 47°57' W 122°18'2 3.3
2017-Oct-09 21:18N 47°58' W 122°21'2 7.9
2017-Oct-09 21:00N 47°57' W 122°18'2 4.6
2017-Oct-09 20:30N 47°58' W 122°21'2 4.6
2017-Oct-09 20:00N 47°57' W 122°18'2 4.3
2017-Oct-09 19:29N 47°58' W 122°21'2 4.9
2017-Oct-09 19:00N 47°57' W 122°18'2 4.6
2017-Oct-09 18:30N 47°58' W 122°21'2 4.7
2017-Oct-09 18:00N 47°57' W 122°18'2 4.6
2017-Oct-09 17:30N 47°58' W 122°21'2 4.6
2017-Oct-09 17:00N 47°57' W 122°18'2 4.3
2017-Oct-09 16:28N 47°58' W 122°21'2 4.9
2017-Oct-09 16:00N 47°57' W 122°18'2 4.6
2017-Oct-09 15:30N 47°58' W 122°21'2 4.5
2017-Oct-09 15:00N 47°57' W 122°18'2 4.5
2017-Oct-09 14:30N 47°58' W 122°21'2 4.7
2017-Oct-09 14:00N 47°57' W 122°18'2 4.5
2017-Oct-09 13:30N 47°58' W 122°21'2 4.8
2017-Oct-09 13:00N 47°57' W 122°18'2 4.1
2017-Oct-09 12:27N 47°58' W 122°21'2 5.2
2017-Oct-09 12:00N 47°57' W 122°18'2 0.6
2017-Oct-09 08:17N 47°58' W 122°21'2 8.4
2017-Oct-09 08:01N 47°57' W 122°18'2 4.2
2017-Oct-09 07:28N 47°58' W 122°21'2 5.1
2017-Oct-09 07:00N 47°57' W 122°18'2 4.6
2017-Oct-09 06:30N 47°58' W 122°21'2 4.7
2017-Oct-09 06:00N 47°57' W 122°18'2 4.6
2017-Oct-09 05:30N 47°58' W 122°21'2 4.5
2017-Oct-09 05:00N 47°57' W 122°18'2 4.4
2017-Oct-09 04:31N 47°58' W 122°21'2 4.5
2017-Oct-09 04:00N 47°57' W 122°18'2 4.4
2017-Oct-09 03:29N 47°58' W 122°21'2 4.9
2017-Oct-09 03:00N 47°57' W 122°18'2 4.4
2017-Oct-09 02:29N 47°58' W 122°21'2 5.0
2017-Oct-09 02:01N 47°57' W 122°18'2 4.6
2017-Oct-09 01:30N 47°58' W 122°21'2 4.7
2017-Oct-09 01:01N 47°57' W 122°18'2 4.5
2017-Oct-09 00:30N 47°58' W 122°21'2 4.8
2017-Oct-09 00:00N 47°57' W 122°18'2 4.4
2017-Oct-08 23:29N 47°58' W 122°21'2 4.8
2017-Oct-08 23:00N 47°57' W 122°18'2 3.2
2017-Oct-08 22:17N 47°58' W 122°21'2 8.2
2017-Oct-08 22:00N 47°57' W 122°18'2 3.9
2017-Oct-08 21:25N 47°58' W 122°21'2 5.8
2017-Oct-08 21:01N 47°57' W 122°18'2 4.6
2017-Oct-08 20:30N 47°58' W 122°21'  
Track history (hours):
 
Tides and Currents Weather Stations Pressure Air Temp Water Temp Dewpoint Dewpoint Depression Visibility Wind Speed Wind Dir Waves Ship Positions

Kitsap

Owner: WASHINGTON, STATE OF; Department of Transportation, OLYMPIA, WA. More information available from US FCC via Universal Licensing System and Coast Guard Vessel Documentation Center.

Last reported at 2017-Oct-18 20:01 UTC. Time now 2017-Oct-18 20:03 UTC.
Position N 47°31' W 122°25'.

Length 100 m; draft 5 m.

Type: Passenger vessel. MMSI: 366772980.

Date/timePositionNaut miles runAvg speedWind from/ knotsBaromVisibWave heightAir tempDewpointWater temp
2017-Oct-18 20:01N 47°31' W 122°25'1 1.9
2017-Oct-18 19:31N 47°31' W 122°27'1 1.8
2017-Oct-18 19:00N 47°31' W 122°25'2 3.4
2017-Oct-18 18:30N 47°31' W 122°28'1 2.7
2017-Oct-18 18:01N 47°31' W 122°30'2 3.8
2017-Oct-18 17:30N 47°31' W 122°27'2 4.3
2017-Oct-18 17:00N 47°31' W 122°24'3 5.5
2017-Oct-18 16:31N 47°31' W 122°28'1 1.1
2017-Oct-18 16:00N 47°31' W 122°28'3 6.0
2017-Oct-18 15:31N 47°31' W 122°24'4 7.3
2017-Oct-18 15:01N 47°31' W 122°29'4 3.7
2017-Oct-18 14:00N 47°31' W 122°24'3 5.5
2017-Oct-18 13:30N 47°31' W 122°28'3 5.5
2017-Oct-18 13:00N 47°31' W 122°24'3 5.6
2017-Oct-18 12:31N 47°31' W 122°28'0 0.0
2017-Oct-18 12:01N 47°31' W 122°28'0 0.0
2017-Oct-18 11:31N 47°31' W 122°28'0 0.0
2017-Oct-18 11:00N 47°31' W 122°28'0 0.0
2017-Oct-18 10:31N 47°31' W 122°28'0 0.0
2017-Oct-18 10:01N 47°31' W 122°28'0 0.0
2017-Oct-18 09:31N 47°31' W 122°28'0 0.0
2017-Oct-18 09:01N 47°31' W 122°28'0 0.0
2017-Oct-18 08:31N 47°31' W 122°28'0 0.0
2017-Oct-18 08:01N 47°31' W 122°28'0 0.0
2017-Oct-18 07:31N 47°31' W 122°28'0 0.0
2017-Oct-18 07:01N 47°31' W 122°28'0 0.0
2017-Oct-18 06:31N 47°31' W 122°28'0 0.0
2017-Oct-18 06:00N 47°31' W 122°28'0 0.0
2017-Oct-18 05:30N 47°31' W 122°28'0 0.0
2017-Oct-18 05:01N 47°31' W 122°28'1 2.6
2017-Oct-18 04:31N 47°31' W 122°30'3 6.7
2017-Oct-18 04:01N 47°31' W 122°25'2 4.2
2017-Oct-18 03:30N 47°31' W 122°28'3 5.5
2017-Oct-18 03:00N 47°31' W 122°24'3 5.9
2017-Oct-18 02:31N 47°31' W 122°28'1 1.0
2017-Oct-18 02:00N 47°31' W 122°28'3 5.6
2017-Oct-18 01:30N 47°31' W 122°24'4 8.0
2017-Oct-18 01:00N 47°31' W 122°30'1 2.5
2017-Oct-18 00:30N 47°31' W 122°28'3 5.6
2017-Oct-18 00:00N 47°31' W 122°24'3 5.6
2017-Oct-17 23:30N 47°31' W 122°28'3 5.5
2017-Oct-17 23:00N 47°31' W 122°24'2 3.9
2017-Oct-17 22:30N 47°31' W 122°27'1 1.2
2017-Oct-17 22:00N 47°31' W 122°27'2 4.2
2017-Oct-17 21:31N 47°31' W 122°24'2 4.7
2017-Oct-17 21:00N 47°31' W 122°28'0 0.0
2017-Oct-17 20:30N 47°31' W 122°28'2 4.0
2017-Oct-17 20:01N 47°32' W 122°25'1 2.8
2017-Oct-17 19:30N 47°31' W 122°27'1 2.4
2017-Oct-17 19:00N 47°31' W 122°25'2 3.8
2017-Oct-17 18:30N 47°31' W 122°28'1 2.7
2017-Oct-17 18:00N 47°31' W 122°30'2 3.3
2017-Oct-17 17:30N 47°31' W 122°27'2 4.8
2017-Oct-17 17:00N 47°31' W 122°24'3 5.9
2017-Oct-17 16:31N 47°31' W 122°28'0 0.3
2017-Oct-17 16:01N 47°31' W 122°28'3 5.3
2017-Oct-17 15:31N 47°31' W 122°24'4 7.2
2017-Oct-17 15:01N 47°31' W 122°30'1 2.6
2017-Oct-17 14:30N 47°31' W 122°28'3 5.6
2017-Oct-17 14:00N 47°31' W 122°24'3 5.5
2017-Oct-17 13:30N 47°31' W 122°28'3 5.6
2017-Oct-17 13:00N 47°31' W 122°24'3 5.5
2017-Oct-17 12:30N 47°31' W 122°28'0 0.0
2017-Oct-17 12:01N 47°31' W 122°28'0 0.0
2017-Oct-17 11:31N 47°31' W 122°28'0 0.0
2017-Oct-17 11:01N 47°31' W 122°28'0 0.0
2017-Oct-17 10:30N 47°31' W 122°28'0 0.0
2017-Oct-17 10:00N 47°31' W 122°28'0 0.0
2017-Oct-17 09:31N 47°31' W 122°28'0 0.0
2017-Oct-17 09:01N 47°31' W 122°28'0 0.0
2017-Oct-17 08:31N 47°31' W 122°28'0 0.0
2017-Oct-17 08:00N 47°31' W 122°28'0 0.0
2017-Oct-17 07:31N 47°31' W 122°28'0 0.0
2017-Oct-17 07:01N 47°31' W 122°28'0 0.0
2017-Oct-17 06:31N 47°31' W 122°28'0 0.0
2017-Oct-17 06:00N 47°31' W 122°28'0 0.0
2017-Oct-17 05:30N 47°31' W 122°28'0 0.0
2017-Oct-17 05:00N 47°31' W 122°28'1 2.7
2017-Oct-17 04:30N 47°31' W 122°30'4 7.8
2017-Oct-17 04:00N 47°31' W 122°24'3 5.3
2017-Oct-17 03:30N 47°31' W 122°28'3 5.6
2017-Oct-17 03:01N 47°31' W 122°24'3 5.6
2017-Oct-17 02:31N 47°31' W 122°28'0 0.5
2017-Oct-17 02:00N 47°31' W 122°28'3 5.6
2017-Oct-17 01:30N 47°31' W 122°24'4 8.1
2017-Oct-17 01:01N 47°31' W 122°30'1 2.6
2017-Oct-17 00:30N 47°31' W 122°28'3 5.6
2017-Oct-17 00:00N 47°31' W 122°24'3 5.6
2017-Oct-16 23:30N 47°31' W 122°28'3 5.5
2017-Oct-16 23:01N 47°31' W 122°24'2 3.6
2017-Oct-16 22:31N 47°31' W 122°26'1 2.0
2017-Oct-16 22:01N 47°31' W 122°28'2 4.7
2017-Oct-16 21:31N 47°31' W 122°24'2 4.7
2017-Oct-16 21:00N 47°31' W 122°28'0 0.0
2017-Oct-16 20:30N 47°31' W 122°28'2 3.8
2017-Oct-16 20:01N 47°31' W 122°25'1 2.0
2017-Oct-16 19:30N 47°31' W 122°26'1 1.5
2017-Oct-16 19:01N 47°31' W 122°25'2 3.3
2017-Oct-16 18:31N 47°31' W 122°28'1 2.7
2017-Oct-16 18:00N 47°31' W 122°30'2 3.8
2017-Oct-16 17:30N 47°31' W 122°27'2 4.3
2017-Oct-16 17:01N 47°31' W 122°24'3 5.5
2017-Oct-16 16:31N 47°31' W 122°28'1 1.1
2017-Oct-16 16:01N 47°31' W 122°28'3 6.3
2017-Oct-16 15:30N 47°31' W 122°24'4 7.5
2017-Oct-16 15:00N 47°31' W 122°29'1 2.2
2017-Oct-16 14:31N 47°31' W 122°28'0 0.0
2017-Oct-16 13:30N 47°31' W 122°28'3 5.6
2017-Oct-16 13:01N 47°31' W 122°24'3 5.5
2017-Oct-16 12:30N 47°31' W 122°28'0 0.0
2017-Oct-16 12:00N 47°31' W 122°28'0 0.0
2017-Oct-16 11:30N 47°31' W 122°28'0 0.0
2017-Oct-16 11:00N 47°31' W 122°28'0 0.0
2017-Oct-16 10:30N 47°31' W 122°28'0 0.0
2017-Oct-16 10:00N 47°31' W 122°28'0 0.0
2017-Oct-16 09:30N 47°31' W 122°28'0 0.0
2017-Oct-16 09:00N 47°31' W 122°28'0 0.0
2017-Oct-16 08:30N 47°31' W 122°28'0 0.0
2017-Oct-16 08:00N 47°31' W 122°28'0 0.0
2017-Oct-16 07:30N 47°31' W 122°28'0 0.0
2017-Oct-16 07:00N 47°31' W 122°28'0 0.0
2017-Oct-16 06:30N 47°31' W 122°28'0 0.0
2017-Oct-16 06:00N 47°31' W 122°28'0 0.0
2017-Oct-16 05:30N 47°31' W 122°28'0 0.0
2017-Oct-16 05:00N 47°31' W 122°28'0 0.0
2017-Oct-16 04:30N 47°31' W 122°28'0 0.0
2017-Oct-16 04:00N 47°31' W 122°28'0 0.0
2017-Oct-16 03:30N 47°31' W 122°28'0 0.0
2017-Oct-16 03:00N 47°31' W 122°28'1 2.8
2017-Oct-16 02:31N 47°31' W 122°26'1 1.2
2017-Oct-16 02:00N 47°31' W 122°27'2 4.1
2017-Oct-16 01:30N 47°31' W 122°30'4 8.0
2017-Oct-16 01:01N 47°31' W 122°24'3 5.5
2017-Oct-16 00:31N 47°31' W 122°28'3 5.5
2017-Oct-16 00:00N 47°31' W 122°24'2 4.3
2017-Oct-15 23:30N 47°31' W 122°27'1 2.8
2017-Oct-15 23:00N 47°31' W 122°25'1 2.9
2017-Oct-15 22:31N 47°31' W 122°27'0 0.8
2017-Oct-15 22:01N 47°31' W 122°27'2 4.4
2017-Oct-15 21:30N 47°31' W 122°30'2 3.7
2017-Oct-15 21:00N 47°31' W 122°27'2 3.8
2017-Oct-15 20:30N 47°31' W 122°24'1 2.8
2017-Oct-15 20:01N 47°31' W 122°26'0 0.5
2017-Oct-15 19:31N 47°31' W 122°26'2 3.1
2017-Oct-15 19:01N 47°32' W 122°28'917.2
2017-Oct-15 18:31N 47°41' W 122°28'917.1
2017-Oct-15 18:01N 47°49' W 122°25'917.2
2017-Oct-15 17:30N 47°57' W 122°21'2 3.0
2017-Oct-15 17:00N 47°57' W 122°18'2 4.6
2017-Oct-15 16:30N 47°58' W 122°21'2 4.5
2017-Oct-15 16:00N 47°57' W 122°18'2 4.5
2017-Oct-15 15:30N 47°58' W 122°21'2 4.6
2017-Oct-15 15:01N 47°57' W 122°18'0 0.0
2017-Oct-15 14:01N 47°57' W 122°18'2 4.5
2017-Oct-15 13:30N 47°58' W 122°21'2 4.5
2017-Oct-15 13:00N 47°57' W 122°18'2 4.5
2017-Oct-15 12:30N 47°58' W 122°21'0 0.0
2017-Oct-15 10:12N 47°58' W 122°21'0 0.0
2017-Oct-15 10:00N 47°58' W 122°21'0 0.0
2017-Oct-15 08:24N 47°58' W 122°21'2 6.0
2017-Oct-15 08:01N 47°57' W 122°18'2 4.6
2017-Oct-15 07:30N 47°58' W 122°21'2 4.6
2017-Oct-15 07:01N 47°57' W 122°18'2 4.6
2017-Oct-15 06:30N 47°58' W 122°21'2 4.6
2017-Oct-15 06:00N 47°57' W 122°18'2 4.5
2017-Oct-15 05:29N 47°58' W 122°21'2 4.7
2017-Oct-15 05:00N 47°57' W 122°18'2 4.5
2017-Oct-15 04:30N 47°58' W 122°21'2 4.6
2017-Oct-15 04:00N 47°57' W 122°18'2 4.6
2017-Oct-15 03:30N 47°58' W 122°21'2 4.7
2017-Oct-15 03:00N 47°57' W 122°18'2 4.7
2017-Oct-15 02:30N 47°58' W 122°21'2 4.7
2017-Oct-15 02:00N 47°57' W 122°18'2 4.3
2017-Oct-15 01:28N 47°58' W 122°21'2 5.0
2017-Oct-15 01:01N 47°57' W 122°18'2 4.6
2017-Oct-15 00:30N 47°58' W 122°21'2 4.7
2017-Oct-15 00:01N 47°57' W 122°18'2 4.6
2017-Oct-14 23:30N 47°58' W 122°21'2 4.7
2017-Oct-14 23:00N 47°57' W 122°18'2 4.7
2017-Oct-14 22:30N 47°58' W 122°21'2 4.7
2017-Oct-14 22:00N 47°57' W 122°18'2 4.6
2017-Oct-14 21:31N 47°58' W 122°21'2 4.6
2017-Oct-14 21:00N 47°57' W 122°18'2 4.7
2017-Oct-14 20:30N 47°58' W 122°21'2 4.6
2017-Oct-14 20:00N 47°57' W 122°18'2 4.5
2017-Oct-14 19:30N 47°58' W 122°21'2 4.8
2017-Oct-14 19:01N 47°57' W 122°18'2 4.6
2017-Oct-14 18:30N 47°58' W 122°21'2 4.7
2017-Oct-14 18:01N 47°57' W 122°18'2 4.6
2017-Oct-14 17:30N 47°58' W 122°21'2 4.6
2017-Oct-14 17:00N 47°57' W 122°18'2 4.6
2017-Oct-14 16:30N 47°58' W 122°21'2 4.7
2017-Oct-14 16:00N 47°57' W 122°18'2 4.6
2017-Oct-14 15:30N 47°58' W 122°21'2 4.6
2017-Oct-14 15:00N 47°57' W 122°18'2 4.5
2017-Oct-14 14:30N 47°58' W 122°21'2 4.7
2017-Oct-14 14:00N 47°57' W 122°18'2 4.6
2017-Oct-14 13:30N 47°58' W 122°21'2 4.6
2017-Oct-14 13:00N 47°57' W 122°18'2 4.4
2017-Oct-14 12:30N 47°58' W 122°21'0 0.1
2017-Oct-14 12:01N 47°58' W 122°21'0 0.0
2017-Oct-14 11:30N 47°58' W 122°21'0 0.0
2017-Oct-14 11:00N 47°58' W 122°21'0 0.0
2017-Oct-14 08:58N 47°58' W 122°21'0 0.0
2017-Oct-14 08:30N 47°58' W 122°21'2 4.7
2017-Oct-14 08:00N 47°57' W 122°18'2 4.5
2017-Oct-14 07:30N 47°58' W 122°21'2 4.6
2017-Oct-14 07:01N 47°57' W 122°18'2 4.4
2017-Oct-14 06:30N 47°58' W 122°21'2 4.7
2017-Oct-14 06:00N 47°57' W 122°18'2 4.1
2017-Oct-14 05:26N 47°58' W 122°21'2 5.3
2017-Oct-14 05:00N 47°57' W 122°18'2 4.4
2017-Oct-14 04:30N 47°58' W 122°21'2 4.7
2017-Oct-14 04:00N 47°57' W 122°18'2 4.6
2017-Oct-14 03:30N 47°58' W 122°21'2 4.7
2017-Oct-14 03:00N 47°57' W 122°18'2 4.7
2017-Oct-14 02:31N 47°58' W 122°21'2 4.6
2017-Oct-14 02:00N 47°57' W 122°18'1 1.2
2017-Oct-14 01:15N 47°57' W 122°20'1 3.7
2017-Oct-14 01:00N 47°57' W 122°18'2 3.1
2017-Oct-14 00:22N 47°58' W 122°21'2 5.2
2017-Oct-13 23:59N 47°57' W 122°18'2 4.5
2017-Oct-13 23:28N 47°58' W 122°21'2 4.8
2017-Oct-13 23:00N 47°57' W 122°18'2 4.8
2017-Oct-13 22:30N 47°58' W 122°21'2 4.6
2017-Oct-13 22:00N 47°57' W 122°18'2 4.7
2017-Oct-13 21:31N 47°58' W 122°21'2 4.6
2017-Oct-13 21:00N 47°57' W 122°18'2 4.6
2017-Oct-13 20:30N 47°58' W 122°21'2 4.7
2017-Oct-13 20:00N 47°57' W 122°18'2 4.2
2017-Oct-13 19:27N 47°58' W 122°21'2 5.0
2017-Oct-13 19:00N 47°57' W 122°18'2 4.5
2017-Oct-13 18:30N 47°58' W 122°21'2 4.6
2017-Oct-13 18:00N 47°57' W 122°18'2 4.7
2017-Oct-13 17:30N 47°58' W 122°21'2 4.7
2017-Oct-13 17:00N 47°57' W 122°18'2 4.6
2017-Oct-13 16:30N 47°58' W 122°21'2 4.7
2017-Oct-13 16:00N 47°57' W 122°18'2 4.7
2017-Oct-13 15:30N 47°58' W 122°21'2 4.6
2017-Oct-13 15:01N 47°57' W 122°18'2 4.5
2017-Oct-13 14:30N 47°58' W 122°21'2 4.6
2017-Oct-13 14:00N 47°57' W 122°18'2 4.6
2017-Oct-13 13:30N 47°58' W 122°21'2 4.7
2017-Oct-13 13:00N 47°57' W 122°18'2 4.4
2017-Oct-13 12:29N 47°58' W 122°21'2 4.9
2017-Oct-13 12:00N 47°57' W 122°18'2 0.4
2017-Oct-13 05:38N 47°59' W 122°21'0 0.2
2017-Oct-13 05:26N 47°59' W 122°21'0 0.0
2017-Oct-13 04:25N 47°59' W 122°21'2 5.8
2017-Oct-13 04:01N 47°57' W 122°18'2 4.6
2017-Oct-13 03:30N 47°58' W 122°21'2 4.6
2017-Oct-13 03:00N 47°57' W 122°18'2 4.6
2017-Oct-13 02:30N 47°58' W 122°21'2 4.7
2017-Oct-13 02:00N 47°57' W 122°18'2 4.5
2017-Oct-13 01:30N 47°58' W 122°21'2 4.8
2017-Oct-13 01:00N 47°57' W 122°18'2 4.6
2017-Oct-13 00:30N 47°58' W 122°21'2 4.7
2017-Oct-13 00:00N 47°57' W 122°18'2 4.6
2017-Oct-12 23:30N 47°58' W 122°21'2 4.7
2017-Oct-12 23:00N 47°57' W 122°18'2 4.4
2017-Oct-12 22:29N 47°58' W 122°21'2 4.9
2017-Oct-12 22:00N 47°57' W 122°18'2 4.5
2017-Oct-12 21:30N 47°58' W 122°21'2 4.8
2017-Oct-12 21:00N 47°57' W 122°18'2 4.5
2017-Oct-12 20:30N 47°58' W 122°21'2 4.8
2017-Oct-12 20:01N 47°57' W 122°18'2 4.1
2017-Oct-12 19:27N 47°58' W 122°21'2 5.2
2017-Oct-12 19:00N 47°57' W 122°18'2 4.5
2017-Oct-12 18:30N 47°58' W 122°21'2 4.6
2017-Oct-12 18:00N 47°57' W 122°18'2 4.6
2017-Oct-12 17:30N 47°58' W 122°21'2 4.5
2017-Oct-12 17:00N 47°57' W 122°18'2 4.5
2017-Oct-12 16:30N 47°58' W 122°21'2 4.6
2017-Oct-12 16:01N 47°57' W 122°18'2 4.5
2017-Oct-12 15:30N 47°58' W 122°21'2 4.6
2017-Oct-12 15:00N 47°57' W 122°18'2 4.1
2017-Oct-12 14:27N 47°58' W 122°21'2 5.1
2017-Oct-12 14:00N 47°57' W 122°18'2 4.5
2017-Oct-12 13:30N 47°58' W 122°21'2 4.6
2017-Oct-12 13:00N 47°57' W 122°18'2 4.5
2017-Oct-12 12:30N 47°58' W 122°21'2 4.6
2017-Oct-12 12:00N 47°57' W 122°18'2 0.6
2017-Oct-12 08:21N 47°58' W 122°21'2 6.9
2017-Oct-12 08:00N 47°57' W 122°18'2 4.6
2017-Oct-12 07:30N 47°58' W 122°21'2 4.5
2017-Oct-12 07:01N 47°57' W 122°18'2 4.5
2017-Oct-12 06:30N 47°58' W 122°21'2 4.5
2017-Oct-12 06:00N 47°57' W 122°18'2 4.4
2017-Oct-12 05:29N 47°58' W 122°21'2 4.7
2017-Oct-12 05:00N 47°57' W 122°18'2 4.5
2017-Oct-12 04:31N 47°58' W 122°21'2 4.6
2017-Oct-12 04:00N 47°57' W 122°18'2 4.2
2017-Oct-12 03:27N 47°58' W 122°21'2 5.1
2017-Oct-12 03:00N 47°57' W 122°18'2 4.5
2017-Oct-12 02:29N 47°58' W 122°21'2 4.8
2017-Oct-12 02:00N 47°57' W 122°18'2 4.6
2017-Oct-12 01:30N 47°58' W 122°21'2 4.7
2017-Oct-12 01:00N 47°57' W 122°18'2 4.6
2017-Oct-12 00:30N 47°58' W 122°21'2 4.5
2017-Oct-12 00:00N 47°57' W 122°18'2 4.7
2017-Oct-11 23:30N 47°58' W 122°21'2 4.7
2017-Oct-11 23:00N 47°57' W 122°18'2 4.6
2017-Oct-11 22:30N 47°58' W 122°21'2 4.7
2017-Oct-11 22:00N 47°57' W 122°18'2 4.6
2017-Oct-11 21:30N 47°58' W 122°21'2 4.7
2017-Oct-11 21:01N 47°57' W 122°18'2 4.6
2017-Oct-11 20:30N 47°58' W 122°21'2 4.6
2017-Oct-11 20:00N 47°57' W 122°18'2 4.1
2017-Oct-11 19:26N 47°58' W 122°21'2 5.4
2017-Oct-11 19:00N 47°57' W 122°18'2 4.6
2017-Oct-11 18:30N 47°58' W 122°21'2 4.6
2017-Oct-11 18:00N 47°57' W 122°18'2 4.6
2017-Oct-11 17:30N 47°58' W 122°21'2 4.5
2017-Oct-11 17:00N 47°57' W 122°18'0 0.0
2017-Oct-11 00:00N 47°57' W 122°18'2 4.2
2017-Oct-10 23:27N 47°58' W 122°21'2 5.3
2017-Oct-10 23:00N 47°57' W 122°18'2 4.6
2017-Oct-10 22:30N 47°58' W 122°21'2 4.7
2017-Oct-10 22:00N 47°57' W 122°18'2 4.5
2017-Oct-10 21:30N 47°58' W 122°21'2 4.8
2017-Oct-10 21:00N 47°57' W 122°18'2 3.8
2017-Oct-10 20:23N 47°58' W 122°21'2 6.1
2017-Oct-10 20:01N 47°57' W 122°18'2 3.4
2017-Oct-10 19:19N 47°58' W 122°21'2 7.4
2017-Oct-10 19:01N 47°57' W 122°18'2 3.8
2017-Oct-10 18:24N 47°58' W 122°21'2 6.0
2017-Oct-10 18:00N 47°57' W 122°18'2 4.6
2017-Oct-10 17:31N 47°58' W 122°21'2 4.6
2017-Oct-10 17:00N 47°57' W 122°18'2 4.6
2017-Oct-10 16:30N 47°58' W 122°21'2 4.5
2017-Oct-10 16:00N 47°57' W 122°18'2 4.5
2017-Oct-10 15:30N 47°58' W 122°21'2 4.5
2017-Oct-10 15:00N 47°57' W 122°18'0 0.0
2017-Oct-10 14:00N 47°57' W 122°18'2 4.5
2017-Oct-10 13:30N 47°58' W 122°21'2 4.6
2017-Oct-10 13:00N 47°57' W 122°18'2 4.5
2017-Oct-10 12:30N 47°58' W 122°21'2 4.7
2017-Oct-10 12:00N 47°57' W 122°18'2 4.8
2017-Oct-10 11:30N 47°59' W 122°21'0 0.1
2017-Oct-10 11:00N 47°59' W 122°21'0 0.1
2017-Oct-10 10:30N 47°59' W 122°21'0 0.1
2017-Oct-10 10:00N 47°59' W 122°21'0 0.0
2017-Oct-10 09:24N 47°59' W 122°21'0 0.0
2017-Oct-10 09:00N 47°59' W 122°21'0 0.0
2017-Oct-10 08:30N 47°59' W 122°21'0 0.1
2017-Oct-10 08:00N 47°59' W 122°21'0 0.1
2017-Oct-10 07:30N 47°59' W 122°21'0 0.1
2017-Oct-10 07:00N 47°59' W 122°21'0 0.1
2017-Oct-10 06:27N 47°59' W 122°21'0 0.0
2017-Oct-10 06:00N 47°59' W 122°21'0 0.0
2017-Oct-10 05:23N 47°59' W 122°21'0 0.0
2017-Oct-10 04:56N 47°59' W 122°21'0 0.1
2017-Oct-10 04:30N 47°59' W 122°21'2 4.7
2017-Oct-10 04:00N 47°57' W 122°18'2 4.6
2017-Oct-10 03:30N 47°58' W 122°21'2 4.7
2017-Oct-10 03:01N 47°57' W 122°18'2 4.1
2017-Oct-10 02:26N 47°58' W 122°21'2 5.4
2017-Oct-10 02:00N 47°57' W 122°18'2 3.7
2017-Oct-10 01:23N 47°58' W 122°21'2 6.2
2017-Oct-10 01:00N 47°57' W 122°18'2 3.7
2017-Oct-10 00:23N 47°58' W 122°21'2 6.3
2017-Oct-10 00:00N 47°57' W 122°18'2 3.5
2017-Oct-09 23:21N 47°58' W 122°21'2 6.7
2017-Oct-09 23:00N 47°57' W 122°18'2 3.5
2017-Oct-09 22:20N 47°58' W 122°21'2 6.9
2017-Oct-09 22:00N 47°57' W 122°18'2 3.3
2017-Oct-09 21:18N 47°58' W 122°21'2 7.9
2017-Oct-09 21:00N 47°57' W 122°18'2 4.6
2017-Oct-09 20:30N 47°58' W 122°21'2 4.6
2017-Oct-09 20:00N 47°57' W 122°18'2 4.3
2017-Oct-09 19:29N 47°58' W 122°21'2 4.9
2017-Oct-09 19:00N 47°57' W 122°18'2 4.6
2017-Oct-09 18:30N 47°58' W 122°21'2 4.7
2017-Oct-09 18:00N 47°57' W 122°18'2 4.6
2017-Oct-09 17:30N 47°58' W 122°21'2 4.6
2017-Oct-09 17:00N 47°57' W 122°18'2 4.3
2017-Oct-09 16:28N 47°58' W 122°21'2 4.9
2017-Oct-09 16:00N 47°57' W 122°18'2 4.6
2017-Oct-09 15:30N 47°58' W 122°21'2 4.5
2017-Oct-09 15:00N 47°57' W 122°18'2 4.5
2017-Oct-09 14:30N 47°58' W 122°21'2 4.7
2017-Oct-09 14:00N 47°57' W 122°18'2 4.5
2017-Oct-09 13:30N 47°58' W 122°21'2 4.8
2017-Oct-09 13:00N 47°57' W 122°18'2 4.1
2017-Oct-09 12:27N 47°58' W 122°21'2 5.2
2017-Oct-09 12:00N 47°57' W 122°18'2 0.6
2017-Oct-09 08:17N 47°58' W 122°21'2 8.4
2017-Oct-09 08:01N 47°57' W 122°18'2 4.2
2017-Oct-09 07:28N 47°58' W 122°21'2 5.1
2017-Oct-09 07:00N 47°57' W 122°18'2 4.6
2017-Oct-09 06:30N 47°58' W 122°21'2 4.7
2017-Oct-09 06:00N 47°57' W 122°18'2 4.6
2017-Oct-09 05:30N 47°58' W 122°21'2 4.5
2017-Oct-09 05:00N 47°57' W 122°18'2 4.4
2017-Oct-09 04:31N 47°58' W 122°21'2 4.5
2017-Oct-09 04:00N 47°57' W 122°18'2 4.4
2017-Oct-09 03:29N 47°58' W 122°21'2 4.9
2017-Oct-09 03:00N 47°57' W 122°18'2 4.4
2017-Oct-09 02:29N 47°58' W 122°21'2 5.0
2017-Oct-09 02:01N 47°57' W 122°18'2 4.6
2017-Oct-09 01:30N 47°58' W 122°21'2 4.7
2017-Oct-09 01:01N 47°57' W 122°18'2 4.5
2017-Oct-09 00:30N 47°58' W 122°21'2 4.8
2017-Oct-09 00:00N 47°57' W 122°18'2 4.4
2017-Oct-08 23:29N 47°58' W 122°21'2 4.8
2017-Oct-08 23:00N 47°57' W 122°18'2 3.2
2017-Oct-08 22:17N 47°58' W 122°21'2 8.2
2017-Oct-08 22:00N 47°57' W 122°18'2 3.9
2017-Oct-08 21:25N 47°58' W 122°21'2 5.8
2017-Oct-08 21:01N 47°57' W 122°18'2 4.6
2017-Oct-08 20:30N 47°58' W 122°21'  

Dump ship's entire track history